sensor_id;sensor_type;location;lat;lon;timestamp;P1;durP1;ratioP1;P2;durP2;ratioP2
60026;SDS011;45891;53.006;6.512;2023-07-20T00:02:01;5.82;;;1.52;;
60026;SDS011;45891;53.006;6.512;2023-07-20T00:04:28;5.15;;;1.40;;
60026;SDS011;45891;53.006;6.512;2023-07-20T00:06:54;5.82;;;1.50;;
60026;SDS011;45891;53.006;6.512;2023-07-20T00:09:20;6.88;;;1.50;;
60026;SDS011;45891;53.006;6.512;2023-07-20T00:11:50;6.95;;;1.80;;
60026;SDS011;45891;53.006;6.512;2023-07-20T00:14:17;6.60;;;1.85;;
60026;SDS011;45891;53.006;6.512;2023-07-20T00:16:44;5.80;;;1.98;;
60026;SDS011;45891;53.006;6.512;2023-07-20T00:19:22;7.20;;;1.92;;
60026;SDS011;45891;53.006;6.512;2023-07-20T00:21:49;6.25;;;2.05;;
60026;SDS011;45891;53.006;6.512;2023-07-20T00:24:16;7.55;;;2.22;;
60026;SDS011;45891;53.006;6.512;2023-07-20T00:26:42;8.48;;;2.83;;
60026;SDS011;45891;53.006;6.512;2023-07-20T00:29:09;7.80;;;2.65;;
60026;SDS011;45891;53.006;6.512;2023-07-20T00:31:35;10.23;;;3.70;;
60026;SDS011;45891;53.006;6.512;2023-07-20T00:34:05;7.90;;;3.10;;
60026;SDS011;45891;53.006;6.512;2023-07-20T00:36:31;8.55;;;3.00;;
60026;SDS011;45891;53.006;6.512;2023-07-20T00:38:58;9.77;;;4.10;;
60026;SDS011;45891;53.006;6.512;2023-07-20T00:41:24;7.63;;;3.38;;
60026;SDS011;45891;53.006;6.512;2023-07-20T00:43:50;9.77;;;4.03;;
60026;SDS011;45891;53.006;6.512;2023-07-20T00:46:16;8.85;;;4.00;;
60026;SDS011;45891;53.006;6.512;2023-07-20T00:48:42;10.73;;;4.15;;
60026;SDS011;45891;53.006;6.512;2023-07-20T00:51:08;10.43;;;4.40;;
60026;SDS011;45891;53.006;6.512;2023-07-20T00:53:36;8.30;;;3.88;;
60026;SDS011;45891;53.006;6.512;2023-07-20T00:56:02;10.02;;;4.13;;
60026;SDS011;45891;53.006;6.512;2023-07-20T00:58:29;9.13;;;4.10;;
60026;SDS011;45891;53.006;6.512;2023-07-20T01:00:55;9.40;;;4.15;;
60026;SDS011;45891;53.006;6.512;2023-07-20T01:03:21;9.90;;;4.30;;
60026;SDS011;45891;53.006;6.512;2023-07-20T01:08:32;9.30;;;4.60;;
60026;SDS011;45891;53.006;6.512;2023-07-20T01:11:10;10.50;;;5.10;;
60026;SDS011;45891;53.006;6.512;2023-07-20T01:13:42;10.45;;;4.65;;
60026;SDS011;45891;53.006;6.512;2023-07-20T01:16:09;10.13;;;4.43;;
60026;SDS011;45891;53.006;6.512;2023-07-20T01:18:35;9.02;;;4.50;;
60026;SDS011;45891;53.006;6.512;2023-07-20T01:21:03;8.88;;;4.75;;
60026;SDS011;45891;53.006;6.512;2023-07-20T01:26:38;8.85;;;5.28;;
60026;SDS011;45891;53.006;6.512;2023-07-20T01:29:37;9.98;;;5.18;;
60026;SDS011;45891;53.006;6.512;2023-07-20T01:32:09;8.50;;;4.45;;
60026;SDS011;45891;53.006;6.512;2023-07-20T01:34:36;10.02;;;4.93;;
60026;SDS011;45891;53.006;6.512;2023-07-20T01:37:03;10.50;;;5.57;;
60026;SDS011;45891;53.006;6.512;2023-07-20T01:39:31;9.90;;;5.32;;
60026;SDS011;45891;53.006;6.512;2023-07-20T01:41:58;10.75;;;4.80;;
60026;SDS011;45891;53.006;6.512;2023-07-20T01:44:24;10.02;;;5.60;;
60026;SDS011;45891;53.006;6.512;2023-07-20T01:46:50;9.35;;;4.88;;
60026;SDS011;45891;53.006;6.512;2023-07-20T01:49:16;9.13;;;4.80;;
60026;SDS011;45891;53.006;6.512;2023-07-20T01:51:43;11.18;;;5.90;;
60026;SDS011;45891;53.006;6.512;2023-07-20T01:54:09;11.65;;;5.57;;
60026;SDS011;45891;53.006;6.512;2023-07-20T01:56:35;9.15;;;4.88;;
60026;SDS011;45891;53.006;6.512;2023-07-20T01:59:01;12.07;;;5.90;;
60026;SDS011;45891;53.006;6.512;2023-07-20T02:01:27;10.05;;;5.00;;
60026;SDS011;45891;53.006;6.512;2023-07-20T02:03:54;9.25;;;5.43;;
60026;SDS011;45891;53.006;6.512;2023-07-20T02:06:20;10.18;;;6.00;;
60026;SDS011;45891;53.006;6.512;2023-07-20T02:08:46;10.57;;;5.90;;
60026;SDS011;45891;53.006;6.512;2023-07-20T02:11:12;18.42;;;6.55;;
60026;SDS011;45891;53.006;6.512;2023-07-20T02:13:38;12.27;;;5.10;;
60026;SDS011;45891;53.006;6.512;2023-07-20T02:16:05;15.85;;;6.18;;
60026;SDS011;45891;53.006;6.512;2023-07-20T02:18:31;14.75;;;5.82;;
60026;SDS011;45891;53.006;6.512;2023-07-20T02:20:57;9.88;;;5.53;;
60026;SDS011;45891;53.006;6.512;2023-07-20T02:23:23;9.52;;;5.47;;
60026;SDS011;45891;53.006;6.512;2023-07-20T02:25:49;10.32;;;5.97;;
60026;SDS011;45891;53.006;6.512;2023-07-20T02:28:15;9.52;;;5.82;;
60026;SDS011;45891;53.006;6.512;2023-07-20T02:30:41;10.10;;;5.25;;
60026;SDS011;45891;53.006;6.512;2023-07-20T02:33:07;9.25;;;5.25;;
60026;SDS011;45891;53.006;6.512;2023-07-20T02:35:34;10.73;;;5.30;;
60026;SDS011;45891;53.006;6.512;2023-07-20T02:38:00;8.75;;;4.78;;
60026;SDS011;45891;53.006;6.512;2023-07-20T02:40:26;9.65;;;5.07;;
60026;SDS011;45891;53.006;6.512;2023-07-20T02:42:53;9.15;;;4.80;;
60026;SDS011;45891;53.006;6.512;2023-07-20T02:45:19;9.25;;;5.00;;
60026;SDS011;45891;53.006;6.512;2023-07-20T02:47:45;9.55;;;5.25;;
60026;SDS011;45891;53.006;6.512;2023-07-20T02:50:11;10.13;;;4.93;;
60026;SDS011;45891;53.006;6.512;2023-07-20T02:52:39;9.00;;;5.03;;
60026;SDS011;45891;53.006;6.512;2023-07-20T02:55:05;9.68;;;5.45;;
60026;SDS011;45891;53.006;6.512;2023-07-20T02:57:32;8.95;;;4.50;;
60026;SDS011;45891;53.006;6.512;2023-07-20T02:59:58;10.80;;;4.80;;
60026;SDS011;45891;53.006;6.512;2023-07-20T03:02:24;9.90;;;5.47;;
60026;SDS011;45891;53.006;6.512;2023-07-20T03:04:50;8.75;;;4.63;;
60026;SDS011;45891;53.006;6.512;2023-07-20T03:07:16;12.00;;;5.05;;
60026;SDS011;45891;53.006;6.512;2023-07-20T03:09:43;8.60;;;4.68;;
60026;SDS011;45891;53.006;6.512;2023-07-20T03:12:09;10.00;;;4.50;;
60026;SDS011;45891;53.006;6.512;2023-07-20T03:14:36;10.20;;;5.20;;
60026;SDS011;45891;53.006;6.512;2023-07-20T03:17:02;8.98;;;4.15;;
60026;SDS011;45891;53.006;6.512;2023-07-20T03:19:28;8.50;;;3.50;;
60026;SDS011;45891;53.006;6.512;2023-07-20T03:21:54;8.43;;;4.25;;
60026;SDS011;45891;53.006;6.512;2023-07-20T03:24:20;8.80;;;3.83;;
60026;SDS011;45891;53.006;6.512;2023-07-20T03:26:46;9.18;;;4.60;;
60026;SDS011;45891;53.006;6.512;2023-07-20T03:29:13;8.55;;;3.80;;
60026;SDS011;45891;53.006;6.512;2023-07-20T03:31:39;8.95;;;3.88;;
60026;SDS011;45891;53.006;6.512;2023-07-20T03:34:05;9.48;;;5.00;;
60026;SDS011;45891;53.006;6.512;2023-07-20T03:36:33;7.80;;;3.92;;
60026;SDS011;45891;53.006;6.512;2023-07-20T03:38:59;8.27;;;4.20;;
60026;SDS011;45891;53.006;6.512;2023-07-20T03:41:25;7.90;;;4.20;;
60026;SDS011;45891;53.006;6.512;2023-07-20T03:43:51;9.05;;;4.10;;
60026;SDS011;45891;53.006;6.512;2023-07-20T03:46:17;9.80;;;4.27;;
60026;SDS011;45891;53.006;6.512;2023-07-20T03:48:43;8.88;;;4.43;;
60026;SDS011;45891;53.006;6.512;2023-07-20T03:51:10;8.73;;;4.20;;
60026;SDS011;45891;53.006;6.512;2023-07-20T03:53:36;10.00;;;4.53;;
60026;SDS011;45891;53.006;6.512;2023-07-20T03:56:02;8.98;;;4.50;;
60026;SDS011;45891;53.006;6.512;2023-07-20T03:58:28;8.60;;;4.00;;
60026;SDS011;45891;53.006;6.512;2023-07-20T04:00:55;8.30;;;3.60;;
60026;SDS011;45891;53.006;6.512;2023-07-20T04:03:23;8.63;;;3.53;;
60026;SDS011;45891;53.006;6.512;2023-07-20T04:05:53;7.65;;;3.50;;
60026;SDS011;45891;53.006;6.512;2023-07-20T04:08:22;9.38;;;3.50;;
60026;SDS011;45891;53.006;6.512;2023-07-20T04:10:51;7.78;;;3.55;;
60026;SDS011;45891;53.006;6.512;2023-07-20T04:13:18;7.88;;;3.30;;
60026;SDS011;45891;53.006;6.512;2023-07-20T04:15:44;9.00;;;3.80;;
60026;SDS011;45891;53.006;6.512;2023-07-20T04:18:10;9.23;;;3.60;;
60026;SDS011;45891;53.006;6.512;2023-07-20T04:20:36;8.07;;;3.70;;
60026;SDS011;45891;53.006;6.512;2023-07-20T04:23:02;7.93;;;3.67;;
60026;SDS011;45891;53.006;6.512;2023-07-20T04:25:29;9.00;;;3.20;;
60026;SDS011;45891;53.006;6.512;2023-07-20T04:28:05;8.75;;;3.83;;
60026;SDS011;45891;53.006;6.512;2023-07-20T04:30:37;7.70;;;3.08;;
60026;SDS011;45891;53.006;6.512;2023-07-20T04:33:05;8.23;;;2.95;;
60026;SDS011;45891;53.006;6.512;2023-07-20T04:35:45;8.38;;;3.33;;
60026;SDS011;45891;53.006;6.512;2023-07-20T04:38:18;10.88;;;3.55;;
60026;SDS011;45891;53.006;6.512;2023-07-20T04:40:45;8.43;;;3.55;;
60026;SDS011;45891;53.006;6.512;2023-07-20T04:43:15;8.05;;;3.25;;
60026;SDS011;45891;53.006;6.512;2023-07-20T04:45:42;9.82;;;3.17;;
60026;SDS011;45891;53.006;6.512;2023-07-20T04:48:12;8.38;;;3.60;;
60026;SDS011;45891;53.006;6.512;2023-07-20T04:50:41;8.32;;;3.20;;
60026;SDS011;45891;53.006;6.512;2023-07-20T04:53:08;7.15;;;3.08;;
60026;SDS011;45891;53.006;6.512;2023-07-20T04:55:38;7.80;;;3.53;;
60026;SDS011;45891;53.006;6.512;2023-07-20T04:58:05;7.65;;;3.22;;
60026;SDS011;45891;53.006;6.512;2023-07-20T05:00:32;8.20;;;3.85;;
60026;SDS011;45891;53.006;6.512;2023-07-20T05:02:59;7.53;;;3.28;;
60026;SDS011;45891;53.006;6.512;2023-07-20T05:05:25;8.73;;;3.38;;
60026;SDS011;45891;53.006;6.512;2023-07-20T05:07:51;9.20;;;3.50;;
60026;SDS011;45891;53.006;6.512;2023-07-20T05:10:17;11.07;;;3.47;;
60026;SDS011;45891;53.006;6.512;2023-07-20T05:12:43;9.73;;;3.67;;
60026;SDS011;45891;53.006;6.512;2023-07-20T05:15:10;8.13;;;3.47;;
60026;SDS011;45891;53.006;6.512;2023-07-20T05:17:36;12.07;;;3.70;;
60026;SDS011;45891;53.006;6.512;2023-07-20T05:20:02;10.00;;;3.45;;
60026;SDS011;45891;53.006;6.512;2023-07-20T05:22:30;10.95;;;3.22;;
60026;SDS011;45891;53.006;6.512;2023-07-20T05:24:56;7.90;;;3.10;;
60026;SDS011;45891;53.006;6.512;2023-07-20T05:27:22;14.27;;;3.58;;
60026;SDS011;45891;53.006;6.512;2023-07-20T05:29:48;10.93;;;3.40;;
60026;SDS011;45891;53.006;6.512;2023-07-20T05:32:14;9.88;;;3.60;;
60026;SDS011;45891;53.006;6.512;2023-07-20T05:34:41;8.13;;;2.90;;
60026;SDS011;45891;53.006;6.512;2023-07-20T05:37:07;8.93;;;3.08;;
60026;SDS011;45891;53.006;6.512;2023-07-20T05:39:33;8.18;;;2.90;;
60026;SDS011;45891;53.006;6.512;2023-07-20T05:41:59;9.65;;;2.55;;
60026;SDS011;45891;53.006;6.512;2023-07-20T05:44:25;8.18;;;3.10;;
60026;SDS011;45891;53.006;6.512;2023-07-20T05:46:51;8.38;;;2.95;;
60026;SDS011;45891;53.006;6.512;2023-07-20T05:49:18;7.82;;;2.53;;
60026;SDS011;45891;53.006;6.512;2023-07-20T05:51:44;6.90;;;2.40;;
60026;SDS011;45891;53.006;6.512;2023-07-20T05:54:10;9.57;;;2.40;;
60026;SDS011;45891;53.006;6.512;2023-07-20T05:56:36;7.80;;;1.92;;
60026;SDS011;45891;53.006;6.512;2023-07-20T05:59:02;7.43;;;2.05;;
60026;SDS011;45891;53.006;6.512;2023-07-20T06:01:28;8.85;;;2.05;;
60026;SDS011;45891;53.006;6.512;2023-07-20T06:03:55;8.15;;;1.88;;
60026;SDS011;45891;53.006;6.512;2023-07-20T06:06:21;9.90;;;1.80;;
60026;SDS011;45891;53.006;6.512;2023-07-20T06:08:47;6.50;;;1.67;;
60026;SDS011;45891;53.006;6.512;2023-07-20T06:11:13;7.20;;;1.63;;
60026;SDS011;45891;53.006;6.512;2023-07-20T06:13:39;9.90;;;1.80;;
60026;SDS011;45891;53.006;6.512;2023-07-20T06:16:05;6.25;;;1.60;;
60026;SDS011;45891;53.006;6.512;2023-07-20T06:18:32;6.50;;;1.60;;
60026;SDS011;45891;53.006;6.512;2023-07-20T06:20:58;5.13;;;1.50;;
60026;SDS011;45891;53.006;6.512;2023-07-20T06:23:24;8.43;;;1.42;;
60026;SDS011;45891;53.006;6.512;2023-07-20T06:25:50;7.35;;;1.65;;
60026;SDS011;45891;53.006;6.512;2023-07-20T06:28:16;7.40;;;1.40;;
60026;SDS011;45891;53.006;6.512;2023-07-20T06:30:43;8.13;;;1.27;;
60026;SDS011;45891;53.006;6.512;2023-07-20T06:33:09;5.55;;;1.30;;
60026;SDS011;45891;53.006;6.512;2023-07-20T06:35:36;4.72;;;1.30;;
60026;SDS011;45891;53.006;6.512;2023-07-20T06:38:02;5.78;;;1.20;;
60026;SDS011;45891;53.006;6.512;2023-07-20T06:40:29;7.18;;;1.13;;
60026;SDS011;45891;53.006;6.512;2023-07-20T06:42:56;5.85;;;1.30;;
60026;SDS011;45891;53.006;6.512;2023-07-20T06:45:22;5.53;;;1.20;;
60026;SDS011;45891;53.006;6.512;2023-07-20T06:47:48;7.20;;;1.30;;
60026;SDS011;45891;53.006;6.512;2023-07-20T06:50:14;4.97;;;1.10;;
60026;SDS011;45891;53.006;6.512;2023-07-20T06:52:40;7.15;;;1.20;;
60026;SDS011;45891;53.006;6.512;2023-07-20T06:55:07;6.80;;;1.40;;
60026;SDS011;45891;53.006;6.512;2023-07-20T06:57:33;5.35;;;1.20;;
60026;SDS011;45891;53.006;6.512;2023-07-20T06:59:59;5.95;;;1.20;;
60026;SDS011;45891;53.006;6.512;2023-07-20T07:02:26;7.55;;;1.35;;
60026;SDS011;45891;53.006;6.512;2023-07-20T07:04:52;8.70;;;1.42;;
60026;SDS011;45891;53.006;6.512;2023-07-20T07:07:18;7.78;;;1.30;;
60026;SDS011;45891;53.006;6.512;2023-07-20T07:09:44;6.63;;;1.20;;
60026;SDS011;45891;53.006;6.512;2023-07-20T07:12:10;5.60;;;1.20;;
60026;SDS011;45891;53.006;6.512;2023-07-20T07:14:36;4.70;;;1.05;;
60026;SDS011;45891;53.006;6.512;2023-07-20T07:17:03;7.07;;;1.40;;
60026;SDS011;45891;53.006;6.512;2023-07-20T07:19:29;6.05;;;1.20;;
60026;SDS011;45891;53.006;6.512;2023-07-20T07:21:55;6.18;;;1.30;;
60026;SDS011;45891;53.006;6.512;2023-07-20T07:24:21;7.68;;;1.40;;
60026;SDS011;45891;53.006;6.512;2023-07-20T07:26:47;7.55;;;1.30;;
60026;SDS011;45891;53.006;6.512;2023-07-20T07:29:14;7.45;;;1.38;;
60026;SDS011;45891;53.006;6.512;2023-07-20T07:31:40;8.13;;;1.20;;
60026;SDS011;45891;53.006;6.512;2023-07-20T07:34:06;7.38;;;1.17;;
60026;SDS011;45891;53.006;6.512;2023-07-20T07:36:32;6.10;;;1.05;;
60026;SDS011;45891;53.006;6.512;2023-07-20T07:38:59;5.13;;;1.10;;
60026;SDS011;45891;53.006;6.512;2023-07-20T07:41:25;5.63;;;1.02;;
60026;SDS011;45891;53.006;6.512;2023-07-20T07:43:51;5.57;;;1.17;;
60026;SDS011;45891;53.006;6.512;2023-07-20T07:46:17;7.45;;;1.13;;
60026;SDS011;45891;53.006;6.512;2023-07-20T07:48:44;5.75;;;1.15;;
60026;SDS011;45891;53.006;6.512;2023-07-20T07:51:10;6.97;;;1.20;;
60026;SDS011;45891;53.006;6.512;2023-07-20T07:53:36;5.40;;;1.20;;
60026;SDS011;45891;53.006;6.512;2023-07-20T07:56:03;6.38;;;1.27;;
60026;SDS011;45891;53.006;6.512;2023-07-20T07:58:32;6.85;;;1.25;;
60026;SDS011;45891;53.006;6.512;2023-07-20T08:00:58;7.70;;;1.40;;
60026;SDS011;45891;53.006;6.512;2023-07-20T08:03:24;5.88;;;1.13;;
60026;SDS011;45891;53.006;6.512;2023-07-20T08:05:54;6.03;;;1.20;;
60026;SDS011;45891;53.006;6.512;2023-07-20T08:08:25;7.43;;;1.58;;
60026;SDS011;45891;53.006;6.512;2023-07-20T08:10:54;9.07;;;1.40;;
60026;SDS011;45891;53.006;6.512;2023-07-20T08:13:23;7.13;;;1.30;;
60026;SDS011;45891;53.006;6.512;2023-07-20T08:15:50;6.65;;;1.40;;
60026;SDS011;45891;53.006;6.512;2023-07-20T08:18:19;4.45;;;1.17;;
60026;SDS011;45891;53.006;6.512;2023-07-20T08:20:46;5.85;;;1.27;;
60026;SDS011;45891;53.006;6.512;2023-07-20T08:23:12;7.07;;;1.40;;
60026;SDS011;45891;53.006;6.512;2023-07-20T08:25:39;6.18;;;1.40;;
60026;SDS011;45891;53.006;6.512;2023-07-20T08:28:13;7.85;;;1.50;;
60026;SDS011;45891;53.006;6.512;2023-07-20T08:30:41;6.32;;;1.40;;
60026;SDS011;45891;53.006;6.512;2023-07-20T08:33:09;4.88;;;1.17;;
60026;SDS011;45891;53.006;6.512;2023-07-20T08:35:36;5.72;;;1.60;;
60026;SDS011;45891;53.006;6.512;2023-07-20T08:38:03;6.82;;;1.23;;
60026;SDS011;45891;53.006;6.512;2023-07-20T08:40:31;5.25;;;1.40;;
60026;SDS011;45891;53.006;6.512;2023-07-20T08:42:58;5.35;;;1.30;;
60026;SDS011;45891;53.006;6.512;2023-07-20T08:45:28;6.88;;;1.40;;
60026;SDS011;45891;53.006;6.512;2023-07-20T08:48:00;6.30;;;1.50;;
60026;SDS011;45891;53.006;6.512;2023-07-20T08:50:30;5.93;;;1.25;;
60026;SDS011;45891;53.006;6.512;2023-07-20T08:52:57;6.88;;;1.42;;
60026;SDS011;45891;53.006;6.512;2023-07-20T08:55:25;8.55;;;1.40;;
60026;SDS011;45891;53.006;6.512;2023-07-20T08:57:56;6.75;;;1.50;;
60026;SDS011;45891;53.006;6.512;2023-07-20T09:00:24;8.38;;;1.48;;
60026;SDS011;45891;53.006;6.512;2023-07-20T09:02:52;7.10;;;1.40;;
60026;SDS011;45891;53.006;6.512;2023-07-20T09:05:19;6.40;;;1.50;;
60026;SDS011;45891;53.006;6.512;2023-07-20T09:07:46;6.30;;;1.40;;
60026;SDS011;45891;53.006;6.512;2023-07-20T09:10:12;6.68;;;1.63;;
60026;SDS011;45891;53.006;6.512;2023-07-20T09:12:43;7.07;;;1.50;;
60026;SDS011;45891;53.006;6.512;2023-07-20T09:17:36;7.53;;;1.60;;
60026;SDS011;45891;53.006;6.512;2023-07-20T09:20:07;8.35;;;1.60;;
60026;SDS011;45891;53.006;6.512;2023-07-20T09:22:39;7.55;;;1.60;;
60026;SDS011;45891;53.006;6.512;2023-07-20T09:25:06;6.10;;;1.52;;
60026;SDS011;45891;53.006;6.512;2023-07-20T09:27:36;8.05;;;1.50;;
60026;SDS011;45891;53.006;6.512;2023-07-20T09:30:06;5.70;;;1.40;;
60026;SDS011;45891;53.006;6.512;2023-07-20T09:32:40;6.93;;;1.63;;
60026;SDS011;45891;53.006;6.512;2023-07-20T09:35:15;5.47;;;1.40;;
60026;SDS011;45891;53.006;6.512;2023-07-20T09:37:46;4.55;;;1.40;;
60026;SDS011;45891;53.006;6.512;2023-07-20T09:40:28;6.93;;;1.40;;
60026;SDS011;45891;53.006;6.512;2023-07-20T09:42:54;4.15;;;1.10;;
60026;SDS011;45891;53.006;6.512;2023-07-20T09:45:31;6.05;;;1.30;;
60026;SDS011;45891;53.006;6.512;2023-07-20T09:48:05;5.82;;;1.40;;
60026;SDS011;45891;53.006;6.512;2023-07-20T09:50:53;5.47;;;1.30;;
60026;SDS011;45891;53.006;6.512;2023-07-20T09:53:19;6.70;;;1.50;;
60026;SDS011;45891;53.006;6.512;2023-07-20T09:55:46;5.70;;;1.40;;
60026;SDS011;45891;53.006;6.512;2023-07-20T09:58:13;5.53;;;1.40;;
60026;SDS011;45891;53.006;6.512;2023-07-20T10:00:41;6.55;;;1.55;;
60026;SDS011;45891;53.006;6.512;2023-07-20T10:03:20;7.25;;;1.40;;
60026;SDS011;45891;53.006;6.512;2023-07-20T10:06:09;5.57;;;1.33;;
60026;SDS011;45891;53.006;6.512;2023-07-20T10:08:38;7.70;;;1.60;;
60026;SDS011;45891;53.006;6.512;2023-07-20T10:11:06;6.90;;;1.70;;
60026;SDS011;45891;53.006;6.512;2023-07-20T10:13:33;7.00;;;1.38;;
60026;SDS011;45891;53.006;6.512;2023-07-20T10:16:10;7.50;;;1.45;;
60026;SDS011;45891;53.006;6.512;2023-07-20T10:21:08;8.60;;;1.50;;
60026;SDS011;45891;53.006;6.512;2023-07-20T10:23:35;10.30;;;1.50;;
60026;SDS011;45891;53.006;6.512;2023-07-20T10:26:02;6.25;;;1.30;;
60026;SDS011;45891;53.006;6.512;2023-07-20T10:28:28;7.03;;;1.50;;
60026;SDS011;45891;53.006;6.512;2023-07-20T10:30:55;7.20;;;1.60;;
60026;SDS011;45891;53.006;6.512;2023-07-20T10:33:21;7.53;;;1.67;;
60026;SDS011;45891;53.006;6.512;2023-07-20T10:35:51;9.15;;;1.85;;
60026;SDS011;45891;53.006;6.512;2023-07-20T10:38:38;9.52;;;1.80;;
60026;SDS011;45891;53.006;6.512;2023-07-20T10:43:48;7.60;;;1.75;;
60026;SDS011;45891;53.006;6.512;2023-07-20T10:46:15;5.40;;;1.40;;
60026;SDS011;45891;53.006;6.512;2023-07-20T10:49:04;6.32;;;1.50;;
60026;SDS011;45891;53.006;6.512;2023-07-20T10:51:38;7.57;;;1.50;;
60026;SDS011;45891;53.006;6.512;2023-07-20T10:57:21;6.85;;;1.50;;
60026;SDS011;45891;53.006;6.512;2023-07-20T11:00:18;7.57;;;1.45;;
60026;SDS011;45891;53.006;6.512;2023-07-20T11:02:48;5.38;;;1.40;;
60026;SDS011;45891;53.006;6.512;2023-07-20T11:08:02;5.93;;;1.40;;
60026;SDS011;45891;53.006;6.512;2023-07-20T11:10:30;7.50;;;1.50;;
60026;SDS011;45891;53.006;6.512;2023-07-20T11:16:01;6.40;;;1.48;;
60026;SDS011;45891;53.006;6.512;2023-07-20T11:18:33;5.80;;;1.42;;
60026;SDS011;45891;53.006;6.512;2023-07-20T11:21:06;7.07;;;1.50;;
60026;SDS011;45891;53.006;6.512;2023-07-20T11:23:33;6.72;;;1.13;;
60026;SDS011;45891;53.006;6.512;2023-07-20T11:25:59;7.35;;;1.35;;
60026;SDS011;45891;53.006;6.512;2023-07-20T11:28:26;7.95;;;1.40;;
60026;SDS011;45891;53.006;6.512;2023-07-20T11:30:56;6.50;;;1.42;;
60026;SDS011;45891;53.006;6.512;2023-07-20T11:33:22;5.95;;;1.60;;
60026;SDS011;45891;53.006;6.512;2023-07-20T11:35:48;7.97;;;1.60;;
60026;SDS011;45891;53.006;6.512;2023-07-20T11:38:16;6.95;;;1.42;;
60026;SDS011;45891;53.006;6.512;2023-07-20T11:40:43;8.32;;;1.67;;
60026;SDS011;45891;53.006;6.512;2023-07-20T11:43:11;7.13;;;1.50;;
60026;SDS011;45891;53.006;6.512;2023-07-20T11:45:38;8.05;;;1.48;;
60026;SDS011;45891;53.006;6.512;2023-07-20T11:48:05;7.07;;;1.60;;
60026;SDS011;45891;53.006;6.512;2023-07-20T11:50:31;7.40;;;1.42;;
60026;SDS011;45891;53.006;6.512;2023-07-20T11:52:57;6.80;;;1.50;;
60026;SDS011;45891;53.006;6.512;2023-07-20T11:55:24;9.70;;;1.40;;
60026;SDS011;45891;53.006;6.512;2023-07-20T11:58:06;7.10;;;1.35;;
60026;SDS011;45891;53.006;6.512;2023-07-20T12:00:34;5.57;;;1.40;;
60026;SDS011;45891;53.006;6.512;2023-07-20T12:03:01;8.25;;;1.40;;
60026;SDS011;45891;53.006;6.512;2023-07-20T12:05:33;7.35;;;1.38;;
60026;SDS011;45891;53.006;6.512;2023-07-20T12:08:00;7.35;;;1.50;;
60026;SDS011;45891;53.006;6.512;2023-07-20T12:10:27;6.68;;;1.63;;
60026;SDS011;45891;53.006;6.512;2023-07-20T12:12:54;5.85;;;1.38;;
60026;SDS011;45891;53.006;6.512;2023-07-20T12:15:26;5.47;;;1.50;;
60026;SDS011;45891;53.006;6.512;2023-07-20T12:17:55;7.57;;;1.48;;
60026;SDS011;45891;53.006;6.512;2023-07-20T12:20:27;7.03;;;1.50;;
60026;SDS011;45891;53.006;6.512;2023-07-20T12:23:01;8.70;;;1.88;;
60026;SDS011;45891;53.006;6.512;2023-07-20T12:28:10;8.02;;;1.50;;
60026;SDS011;45891;53.006;6.512;2023-07-20T12:30:38;8.07;;;1.55;;
60026;SDS011;45891;53.006;6.512;2023-07-20T12:33:05;8.48;;;1.65;;
60026;SDS011;45891;53.006;6.512;2023-07-20T12:35:31;10.63;;;1.58;;
60026;SDS011;45891;53.006;6.512;2023-07-20T12:37:58;8.27;;;1.80;;
60026;SDS011;45891;53.006;6.512;2023-07-20T12:40:24;7.60;;;1.40;;
60026;SDS011;45891;53.006;6.512;2023-07-20T12:42:51;6.18;;;1.50;;
60026;SDS011;45891;53.006;6.512;2023-07-20T12:45:17;7.63;;;1.83;;
60026;SDS011;45891;53.006;6.512;2023-07-20T12:47:44;6.78;;;1.50;;
60026;SDS011;45891;53.006;6.512;2023-07-20T12:50:10;6.65;;;1.20;;
60026;SDS011;45891;53.006;6.512;2023-07-20T12:52:37;7.03;;;1.50;;
60026;SDS011;45891;53.006;6.512;2023-07-20T12:55:05;6.80;;;1.50;;
60026;SDS011;45891;53.006;6.512;2023-07-20T12:57:33;7.80;;;1.45;;
60026;SDS011;45891;53.006;6.512;2023-07-20T13:00:05;8.45;;;1.63;;
60026;SDS011;45891;53.006;6.512;2023-07-20T13:02:35;8.00;;;1.77;;
60026;SDS011;45891;53.006;6.512;2023-07-20T13:05:02;6.32;;;1.50;;
60026;SDS011;45891;53.006;6.512;2023-07-20T13:07:30;7.15;;;1.60;;
60026;SDS011;45891;53.006;6.512;2023-07-20T13:09:57;6.35;;;1.50;;
60026;SDS011;45891;53.006;6.512;2023-07-20T13:12:26;6.88;;;1.60;;
60026;SDS011;45891;53.006;6.512;2023-07-20T13:14:53;5.90;;;1.45;;
60026;SDS011;45891;53.006;6.512;2023-07-20T13:17:21;7.00;;;1.50;;
60026;SDS011;45891;53.006;6.512;2023-07-20T13:19:48;6.22;;;1.60;;
60026;SDS011;45891;53.006;6.512;2023-07-20T13:22:14;7.80;;;1.60;;
60026;SDS011;45891;53.006;6.512;2023-07-20T13:24:41;6.72;;;1.50;;
60026;SDS011;45891;53.006;6.512;2023-07-20T13:27:07;8.77;;;1.63;;
60026;SDS011;45891;53.006;6.512;2023-07-20T13:29:33;7.00;;;1.52;;
60026;SDS011;45891;53.006;6.512;2023-07-20T13:31:59;7.88;;;1.65;;
60026;SDS011;45891;53.006;6.512;2023-07-20T13:34:26;7.40;;;1.55;;
60026;SDS011;45891;53.006;6.512;2023-07-20T13:36:52;9.15;;;1.75;;
60026;SDS011;45891;53.006;6.512;2023-07-20T13:39:18;8.52;;;1.80;;
60026;SDS011;45891;53.006;6.512;2023-07-20T13:41:44;6.03;;;1.50;;
60026;SDS011;45891;53.006;6.512;2023-07-20T13:44:11;6.80;;;1.65;;
60026;SDS011;45891;53.006;6.512;2023-07-20T13:46:37;6.13;;;1.50;;
60026;SDS011;45891;53.006;6.512;2023-07-20T13:49:03;7.78;;;1.83;;
60026;SDS011;45891;53.006;6.512;2023-07-20T13:51:29;9.63;;;1.55;;
60026;SDS011;45891;53.006;6.512;2023-07-20T13:53:56;6.93;;;1.67;;
60026;SDS011;45891;53.006;6.512;2023-07-20T13:56:23;8.35;;;1.88;;
60026;SDS011;45891;53.006;6.512;2023-07-20T13:58:50;6.75;;;1.40;;
60026;SDS011;45891;53.006;6.512;2023-07-20T14:01:16;6.50;;;1.63;;
60026;SDS011;45891;53.006;6.512;2023-07-20T14:03:45;8.20;;;1.70;;
60026;SDS011;45891;53.006;6.512;2023-07-20T14:06:11;7.00;;;1.70;;
60026;SDS011;45891;53.006;6.512;2023-07-20T14:08:38;6.78;;;1.92;;
60026;SDS011;45891;53.006;6.512;2023-07-20T14:11:05;7.78;;;1.70;;
60026;SDS011;45891;53.006;6.512;2023-07-20T14:13:32;8.02;;;1.70;;
60026;SDS011;45891;53.006;6.512;2023-07-20T14:15:58;6.85;;;1.50;;
60026;SDS011;45891;53.006;6.512;2023-07-20T14:18:24;7.65;;;1.60;;
60026;SDS011;45891;53.006;6.512;2023-07-20T14:20:50;6.30;;;1.63;;
60026;SDS011;45891;53.006;6.512;2023-07-20T14:23:16;6.55;;;1.45;;
60026;SDS011;45891;53.006;6.512;2023-07-20T14:25:42;7.30;;;1.52;;
60026;SDS011;45891;53.006;6.512;2023-07-20T14:28:09;6.20;;;1.55;;
60026;SDS011;45891;53.006;6.512;2023-07-20T14:30:35;8.60;;;2.00;;
60026;SDS011;45891;53.006;6.512;2023-07-20T14:33:01;7.05;;;1.55;;
60026;SDS011;45891;53.006;6.512;2023-07-20T14:35:27;6.63;;;1.70;;
60026;SDS011;45891;53.006;6.512;2023-07-20T14:37:53;6.93;;;2.00;;
60026;SDS011;45891;53.006;6.512;2023-07-20T14:40:19;9.57;;;1.40;;
60026;SDS011;45891;53.006;6.512;2023-07-20T14:42:46;10.77;;;1.80;;
60026;SDS011;45891;53.006;6.512;2023-07-20T14:45:12;6.65;;;1.60;;
60026;SDS011;45891;53.006;6.512;2023-07-20T14:47:38;7.28;;;1.77;;
60026;SDS011;45891;53.006;6.512;2023-07-20T14:50:05;7.75;;;1.70;;
60026;SDS011;45891;53.006;6.512;2023-07-20T14:52:32;8.05;;;1.63;;
60026;SDS011;45891;53.006;6.512;2023-07-20T14:54:58;7.72;;;1.80;;
60026;SDS011;45891;53.006;6.512;2023-07-20T14:57:24;6.95;;;1.40;;
60026;SDS011;45891;53.006;6.512;2023-07-20T14:59:50;7.90;;;1.77;;
60026;SDS011;45891;53.006;6.512;2023-07-20T15:02:16;6.72;;;1.33;;
60026;SDS011;45891;53.006;6.512;2023-07-20T15:04:49;6.50;;;1.50;;
60026;SDS011;45891;53.006;6.512;2023-07-20T15:07:17;7.90;;;1.55;;
60026;SDS011;45891;53.006;6.512;2023-07-20T15:09:44;7.95;;;1.52;;
60026;SDS011;45891;53.006;6.512;2023-07-20T15:12:11;7.55;;;1.58;;
60026;SDS011;45891;53.006;6.512;2023-07-20T15:14:39;6.28;;;1.42;;